NO-0019 weather

Public forecast

Using degrees Celsius for public forecast. Weather courtesy of forecast.io.

Closest aviation weather report (METAR) to Bjorli Airfield

Closest report is Molde Airport, 41.0 nm (75.9 km) NW. Retrieved 2020/08/09 13:20 UTC (36 minutes ago):

ENML 091320Z 30009KT 260V340 9999 FEW032 19/09 Q1026

Closest aviation forecast (TAF) to Bjorli Airfield

Forecast is more than 12 hours old.

Closest forecast is Molde Airport, 41.0 nm (75.9 km) NW. Retrieved 2011/03/08 08:45 UTC (9 years ago):

TAF TAF ESDF 0808 FCNO33 ENMI 080800 RRC TAF ENML 080800Z 0809/0818 21015KT 9999 FEW030 BKN050 TEMPO 0809/0818 21022G35KT BECMG 0815/0818 21022G35KT TEMPO 0815/0818 4000 RADZ BKN012